Time;durP1;ratioP1;P1;durP2;ratioP2;P2;SDS_P1;SDS_P2;PMS_P1;PMS_P2;Temp;Humidity;BMP_temperature;BMP_pressure;BME280_temperature;BME280_humidity;BME280_pressure;Samples;Min_cycle;Max_cycle;Signal;HPM_P1;HPM_P2
2022/03/27 00:00:00;;;;;;;33.65;19.55;;;7.80;78.90;;;;;;4954193;29;20051;-69
2022/03/27 00:02:27;;;;;;;37.30;20.67;;;7.70;79.10;;;;;;4954047;29;20047;-69
2022/03/27 00:04:56;;;;;;;30.05;19.58;;;7.60;79.20;;;;;;4953959;29;20058;-70
2022/03/27 00:07:23;;;;;;;31.92;19.60;;;7.50;79.30;;;;;;4954088;29;20051;-70
2022/03/27 00:09:51;;;;;;;34.00;19.50;;;7.50;79.50;;;;;;4954019;29;20047;-70
2022/03/27 00:12:19;;;;;;;31.13;18.33;;;7.40;79.60;;;;;;4952543;29;20047;-69
2022/03/27 00:14:47;;;;;;;33.80;19.45;;;7.30;79.80;;;;;;4936803;29;20504;-69
2022/03/27 00:17:14;;;;;;;33.10;19.48;;;7.30;79.90;;;;;;4954043;29;20051;-70
2022/03/27 00:19:42;;;;;;;30.30;18.52;;;7.30;80.10;;;;;;4953396;28;20059;-69
2022/03/27 00:22:10;;;;;;;28.42;18.50;;;7.20;80.20;;;;;;4953864;29;20052;-69
2022/03/27 00:24:37;;;;;;;31.27;19.17;;;7.20;80.40;;;;;;4953496;29;20062;-68
2022/03/27 00:27:05;;;;;;;28.95;18.33;;;7.20;80.50;;;;;;4953953;29;20052;-69
2022/03/27 00:29:33;;;;;;;31.02;18.60;;;7.10;80.50;;;;;;4953812;29;20059;-69
2022/03/27 00:32:00;;;;;;;29.90;20.02;;;7.10;80.50;;;;;;4952459;29;20047;-69
2022/03/27 00:34:28;;;;;;;28.48;18.42;;;7.00;80.60;;;;;;4953717;29;20052;-69
2022/03/27 00:36:57;;;;;;;29.83;18.65;;;7.00;80.70;;;;;;4953829;29;20047;-69
2022/03/27 00:39:24;;;;;;;34.47;18.42;;;7.00;80.90;;;;;;4953687;29;20047;-70
2022/03/27 00:41:52;;;;;;;30.42;18.67;;;7.00;80.90;;;;;;4953280;28;20416;-69
2022/03/27 00:44:19;;;;;;;28.83;18.23;;;6.90;81.10;;;;;;4953391;28;20051;-69
2022/03/27 00:46:47;;;;;;;27.52;17.33;;;6.90;81.30;;;;;;4953711;29;20051;-69
2022/03/27 00:49:15;;;;;;;25.38;16.75;;;7.00;81.30;;;;;;4952535;29;20054;-69
2022/03/27 00:51:43;;;;;;;26.88;17.10;;;6.90;81.30;;;;;;4953642;29;20051;-68
2022/03/27 00:54:10;;;;;;;33.00;18.52;;;6.90;81.40;;;;;;4953016;28;20497;-68
2022/03/27 00:56:38;;;;;;;28.67;17.20;;;7.00;81.40;;;;;;4952537;29;20055;-69
2022/03/27 00:59:06;;;;;;;28.95;16.70;;;6.90;81.50;;;;;;4953617;29;20044;-69
2022/03/27 01:01:36;;;;;;;33.67;17.00;;;6.90;81.60;;;;;;4953574;29;20051;-68
2022/03/27 01:04:06;;;;;;;27.38;16.98;;;6.80;81.70;;;;;;4953316;28;20043;-68
2022/03/27 01:06:38;;;;;;;29.88;17.50;;;6.80;81.70;;;;;;4956822;29;20051;-69
2022/03/27 01:11:55;;;;;;;29.35;17.50;;;6.70;81.90;;;;;;4937361;29;20438;-68
2022/03/27 01:14:33;;;;;;;24.85;16.40;;;6.70;82.00;;;;;;4937485;29;20515;-68
2022/03/27 01:17:08;;;;;;;26.90;16.65;;;6.60;82.20;;;;;;4937103;29;20060;-69
2022/03/27 01:19:44;;;;;;;30.83;17.38;;;6.70;82.40;;;;;;4936628;29;20043;-68
2022/03/27 01:22:13;;;;;;;28.90;17.48;;;6.60;82.40;;;;;;4956795;29;20047;-68
2022/03/27 01:24:41;;;;;;;31.90;17.75;;;6.60;82.40;;;;;;4956642;29;20408;-68
2022/03/27 01:27:09;;;;;;;30.17;17.38;;;6.50;82.60;;;;;;4955283;29;20049;-68
2022/03/27 01:29:37;;;;;;;26.17;16.35;;;6.50;82.60;;;;;;4956645;29;20070;-68
2022/03/27 01:32:06;;;;;;;32.00;18.08;;;6.30;82.70;;;;;;4956450;29;20047;-68
2022/03/27 01:34:34;;;;;;;30.67;17.67;;;6.30;82.90;;;;;;4956851;29;20485;-68
2022/03/27 01:37:10;;;;;;;29.70;18.27;;;6.20;83.10;;;;;;4956045;28;20070;-68
2022/03/27 01:39:38;;;;;;;28.60;17.73;;;6.20;83.30;;;;;;4956843;29;20058;-68
2022/03/27 01:42:06;;;;;;;28.90;16.70;;;6.10;83.40;;;;;;4956386;28;20138;-68
2022/03/27 01:44:34;;;;;;;34.75;18.65;;;6.00;83.50;;;;;;4956585;29;20054;-68
2022/03/27 01:47:02;;;;;;;30.38;18.60;;;6.00;83.60;;;;;;4954817;29;20059;-68
2022/03/27 01:49:30;;;;;;;29.48;17.55;;;6.00;83.70;;;;;;4955130;29;20050;-68
2022/03/27 01:51:57;;;;;;;32.97;18.77;;;6.00;83.80;;;;;;4953729;28;20054;-68
2022/03/27 01:54:25;;;;;;;29.15;17.77;;;5.90;83.80;;;;;;4956008;29;20051;-69
2022/03/27 01:56:53;;;;;;;31.00;19.10;;;5.80;83.90;;;;;;4971371;28;20043;-68
2022/03/27 01:59:21;;;;;;;32.17;18.70;;;5.70;84.00;;;;;;4956457;29;20058;-69
2022/03/27 02:01:49;;;;;;;30.23;17.80;;;5.60;84.20;;;;;;4955705;28;20409;-68
2022/03/27 02:04:18;;;;;;;35.83;18.52;;;5.50;84.30;;;;;;4956075;29;20045;-69
2022/03/27 02:06:45;;;;;;;32.90;18.55;;;5.50;84.30;;;;;;4956024;28;20066;-68
2022/03/27 02:09:13;;;;;;;34.70;19.85;;;5.30;84.30;;;;;;4956091;29;20047;-68
2022/03/27 02:11:42;;;;;;;42.85;22.17;;;5.30;84.50;;;;;;4955818;29;20055;-68
2022/03/27 02:14:10;;;;;;;41.90;21.75;;;5.30;84.80;;;;;;4955899;29;20074;-68
2022/03/27 02:16:38;;;;;;;45.63;23.35;;;5.30;84.90;;;;;;4955722;28;20378;-69
2022/03/27 02:19:09;;;;;;;43.85;21.85;;;5.20;85.00;;;;;;4955966;29;20055;-69
2022/03/27 02:21:38;;;;;;;41.50;22.08;;;5.20;85.10;;;;;;4955720;29;20040;-68
2022/03/27 02:24:08;;;;;;;40.50;21.63;;;5.10;85.20;;;;;;4954773;29;20417;-69
2022/03/27 02:26:41;;;;;;;38.15;21.42;;;5.10;85.30;;;;;;4955860;29;20040;-69
2022/03/27 02:29:16;;;;;;;39.28;20.70;;;5.10;85.30;;;;;;4954989;28;20062;-68
2022/03/27 02:31:45;;;;;;;36.15;20.20;;;5.00;85.20;;;;;;4955327;29;20055;-68
2022/03/27 02:34:14;;;;;;;39.58;20.90;;;4.90;85.30;;;;;;4955755;29;20047;-68
2022/03/27 02:36:42;;;;;;;42.78;20.95;;;4.80;85.30;;;;;;4955378;29;20489;-69
2022/03/27 02:39:10;;;;;;;45.40;23.25;;;4.70;85.50;;;;;;4954754;28;20054;-69
2022/03/27 02:41:42;;;;;;;50.38;23.05;;;4.60;85.50;;;;;;4955396;29;20051;-69
2022/03/27 02:44:12;;;;;;;59.00;25.30;;;4.60;85.70;;;;;;4955700;29;20051;-69
2022/03/27 02:46:40;;;;;;;61.25;26.48;;;4.50;85.70;;;;;;4954622;29;20390;-69
2022/03/27 02:49:09;;;;;;;55.60;23.83;;;4.50;85.80;;;;;;4955204;29;20046;-69
2022/03/27 02:51:37;;;;;;;51.13;25.73;;;4.50;85.90;;;;;;4969864;28;20043;-68
2022/03/27 02:54:04;;;;;;;54.78;25.88;;;4.40;85.90;;;;;;4954847;29;20058;-69
2022/03/27 02:56:32;;;;;;;53.80;25.30;;;4.30;86.00;;;;;;4955281;29;20574;-69
2022/03/27 02:59:00;;;;;;;59.13;25.55;;;4.30;86.10;;;;;;4954878;29;20058;-69
2022/03/27 03:01:27;;;;;;;48.67;24.70;;;4.20;86.10;;;;;;4955181;29;20051;-69
2022/03/27 03:03:56;;;;;;;47.28;22.73;;;4.20;86.20;;;;;;4953953;29;20047;-68
2022/03/27 03:06:25;;;;;;;46.47;23.80;;;4.20;86.30;;;;;;4954990;29;20054;-68
2022/03/27 03:08:52;;;;;;;53.05;24.17;;;4.10;86.30;;;;;;4954947;29;20055;-68
2022/03/27 03:11:20;;;;;;;49.72;24.05;;;4.00;86.50;;;;;;4955200;29;20070;-68
2022/03/27 03:13:49;;;;;;;46.42;23.88;;;4.00;86.50;;;;;;4954693;29;20077;-68
2022/03/27 03:16:38;;;;;;;51.00;24.83;;;3.90;86.50;;;;;;4954831;29;20047;-68
2022/03/27 03:19:06;;;;;;;48.00;24.17;;;3.90;86.50;;;;;;4952208;28;20047;-68
2022/03/27 03:21:34;;;;;;;53.30;24.58;;;3.80;86.60;;;;;;4954608;29;20047;-68
2022/03/27 03:24:02;;;;;;;60.90;26.48;;;3.80;86.60;;;;;;4953391;29;20058;-68
2022/03/27 03:26:30;;;;;;;54.67;24.02;;;3.70;86.70;;;;;;4954567;29;20077;-68
2022/03/27 03:28:57;;;;;;;55.53;25.73;;;3.70;86.70;;;;;;4953411;28;20054;-68
2022/03/27 03:31:25;;;;;;;71.30;27.40;;;3.60;86.80;;;;;;4953396;29;20059;-68
2022/03/27 03:33:52;;;;;;;59.80;27.45;;;3.50;87.10;;;;;;4954404;29;20051;-68
2022/03/27 03:36:20;;;;;;;56.17;26.73;;;3.50;87.00;;;;;;4954320;29;20374;-68
2022/03/27 03:38:48;;;;;;;54.53;24.55;;;3.60;87.10;;;;;;4954435;29;20062;-68
2022/03/27 03:41:16;;;;;;;48.35;23.48;;;3.50;87.10;;;;;;4953276;29;20058;-68
2022/03/27 03:43:44;;;;;;;53.63;24.17;;;3.50;87.00;;;;;;4954180;29;20054;-68
2022/03/27 03:46:12;;;;;;;48.25;24.65;;;3.40;87.00;;;;;;4937069;29;20413;-68
2022/03/27 03:48:40;;;;;;;57.83;25.90;;;3.30;87.20;;;;;;4954247;29;20489;-68
2022/03/27 03:51:08;;;;;;;54.13;25.33;;;3.30;87.40;;;;;;4954144;29;20051;-68
2022/03/27 03:53:35;;;;;;;63.25;28.15;;;3.30;87.40;;;;;;4953942;29;20054;-68
2022/03/27 03:56:05;;;;;;;66.10;27.25;;;3.20;87.40;;;;;;4954228;29;20047;-68
2022/03/27 03:58:32;;;;;;;64.38;26.98;;;3.30;87.50;;;;;;4953005;28;20465;-68
2022/03/27 04:01:00;;;;;;;66.72;27.75;;;3.20;87.50;;;;;;4953525;28;20052;-68
2022/03/27 04:03:28;;;;;;;61.78;26.48;;;3.20;87.50;;;;;;4954527;29;20054;-68
2022/03/27 04:05:56;;;;;;;63.88;28.40;;;3.20;87.60;;;;;;4954124;29;20136;-69
2022/03/27 04:08:24;;;;;;;63.28;26.58;;;3.20;87.70;;;;;;4954130;29;20055;-69
2022/03/27 04:10:51;;;;;;;53.25;26.08;;;3.20;87.70;;;;;;4952962;29;20051;-68
2022/03/27 04:13:19;;;;;;;55.78;24.75;;;3.10;87.70;;;;;;4953556;28;20086;-70
2022/03/27 04:15:46;;;;;;;60.95;26.73;;;3.10;87.80;;;;;;4952757;29;20465;-68
2022/03/27 04:18:24;;;;;;;68.05;28.65;;;3.10;87.80;;;;;;4953897;29;20066;-69
2022/03/27 04:20:51;;;;;;;66.35;28.35;;;3.00;87.80;;;;;;4954106;29;20058;-69
2022/03/27 04:23:19;;;;;;;86.22;30.40;;;3.00;87.80;;;;;;4953935;29;20043;-69
2022/03/27 04:25:47;;;;;;;68.68;27.60;;;3.00;87.80;;;;;;4953996;29;20059;-69
2022/03/27 04:28:15;;;;;;;74.97;28.92;;;2.90;87.90;;;;;;4954200;29;20043;-69
2022/03/27 04:30:42;;;;;;;67.03;27.75;;;2.90;87.90;;;;;;4953399;29;20537;-69
2022/03/27 04:33:10;;;;;;;61.20;26.75;;;2.90;88.00;;;;;;4952503;29;20436;-69
2022/03/27 04:35:38;;;;;;;60.00;27.88;;;2.90;88.00;;;;;;4953775;29;20055;-69
2022/03/27 04:38:06;;;;;;;74.15;29.88;;;2.80;88.00;;;;;;4953805;29;20043;-69
2022/03/27 04:40:34;;;;;;;66.95;28.73;;;2.80;88.10;;;;;;4955636;28;20435;-69
2022/03/27 04:43:02;;;;;;;77.82;27.58;;;2.80;88.10;;;;;;4956290;29;20512;-69
2022/03/27 04:45:29;;;;;;;71.55;28.92;;;2.80;88.10;;;;;;4957453;29;20083;-69
2022/03/27 04:47:57;;;;;;;72.40;29.20;;;2.70;88.10;;;;;;4956463;29;20043;-69
2022/03/27 04:50:25;;;;;;;67.38;26.50;;;2.70;88.20;;;;;;4957564;29;20050;-69
2022/03/27 04:52:52;;;;;;;59.00;27.90;;;2.70;88.20;;;;;;4956145;29;20405;-69
2022/03/27 04:55:20;;;;;;;54.85;26.67;;;2.70;88.30;;;;;;4956754;29;20086;-69
2022/03/27 04:57:48;;;;;;;52.40;24.42;;;2.60;88.20;;;;;;4957351;29;20047;-69
2022/03/27 05:00:19;;;;;;;58.90;27.95;;;2.60;88.20;;;;;;4957515;29;20054;-69
2022/03/27 05:02:47;;;;;;;66.93;29.33;;;2.50;88.40;;;;;;4957223;28;20531;-69
2022/03/27 05:05:15;;;;;;;65.00;28.88;;;2.50;88.40;;;;;;4955963;29;20070;-69
2022/03/27 05:07:44;;;;;;;69.40;28.08;;;2.50;88.50;;;;;;4957527;29;20054;-69
2022/03/27 05:10:13;;;;;;;54.38;27.50;;;2.50;88.50;;;;;;4956890;29;20051;-69
2022/03/27 05:12:41;;;;;;;61.45;27.33;;;2.50;88.50;;;;;;4956955;29;20510;-69
2022/03/27 05:15:09;;;;;;;63.20;26.55;;;2.60;88.50;;;;;;4955833;29;20055;-69
2022/03/27 05:17:54;;;;;;;57.15;26.17;;;2.60;88.50;;;;;;4948150;29;20405;-68
2022/03/27 05:20:23;;;;;;;73.22;29.58;;;2.60;88.50;;;;;;4947337;29;20064;-69
2022/03/27 05:22:51;;;;;;;67.88;28.65;;;2.60;88.40;;;;;;4945552;29;20060;-69
2022/03/27 05:25:19;;;;;;;64.90;26.85;;;2.60;88.30;;;;;;4939581;29;20074;-69
2022/03/27 05:27:50;;;;;;;67.68;28.67;;;2.60;88.30;;;;;;4937575;29;20063;-69
2022/03/27 05:30:19;;;;;;;70.70;29.83;;;2.60;88.20;;;;;;4937964;29;20363;-69
2022/03/27 05:32:47;;;;;;;63.10;27.92;;;2.50;88.40;;;;;;4937521;29;20054;-69
2022/03/27 05:35:16;;;;;;;73.82;30.67;;;2.50;88.40;;;;;;4937466;29;20048;-69
2022/03/27 05:37:45;;;;;;;79.43;31.23;;;2.50;88.50;;;;;;4937565;29;20051;-69
2022/03/27 05:40:18;;;;;;;68.80;30.40;;;2.50;88.60;;;;;;4936151;29;20405;-69
2022/03/27 05:42:47;;;;;;;77.63;30.45;;;2.60;88.60;;;;;;4936176;29;20058;-69
2022/03/27 05:45:16;;;;;;;74.47;31.33;;;2.60;88.60;;;;;;4937815;29;20047;-70
2022/03/27 05:47:44;;;;;;;77.07;30.88;;;2.60;88.50;;;;;;4935983;29;20056;-69
2022/03/27 05:50:14;;;;;;;65.90;29.73;;;2.60;88.50;;;;;;4936760;29;20054;-69
2022/03/27 05:52:43;;;;;;;68.32;29.38;;;2.50;88.60;;;;;;4937112;29;20044;-69
2022/03/27 05:55:12;;;;;;;68.63;29.88;;;2.50;88.70;;;;;;4937088;29;20055;-69
2022/03/27 05:57:42;;;;;;;66.85;29.42;;;2.60;88.70;;;;;;4936360;29;20048;-68
2022/03/27 06:00:12;;;;;;;64.05;29.98;;;2.60;88.70;;;;;;4936720;29;20063;-69
2022/03/27 06:02:44;;;;;;;67.30;31.90;;;2.60;88.80;;;;;;4937258;29;20052;-69
2022/03/27 06:05:12;;;;;;;61.40;29.98;;;2.70;88.80;;;;;;4936930;29;20052;-69
2022/03/27 06:07:45;;;;;;;60.55;28.50;;;2.80;88.70;;;;;;4943889;29;20051;-69
2022/03/27 06:10:14;;;;;;;63.65;28.88;;;2.90;88.70;;;;;;4942097;29;20059;-69
2022/03/27 06:12:43;;;;;;;61.25;28.00;;;2.90;88.60;;;;;;4945524;29;20055;-69
2022/03/27 06:15:12;;;;;;;53.60;26.80;;;3.00;88.50;;;;;;4940000;29;20116;-70
2022/03/27 06:17:45;;;;;;;67.68;29.23;;;2.90;88.50;;;;;;4955913;29;20448;-71
2022/03/27 06:20:17;;;;;;;;;;;2.90;88.50;;;;;;4955695;28;20159;-69
2022/03/27 06:22:45;;;;;;;63.53;28.33;;;2.90;88.50;;;;;;4955726;29;19922;-69
2022/03/27 06:25:15;;;;;;;73.30;30.20;;;2.90;88.40;;;;;;4955645;29;20043;-69
2022/03/27 06:27:44;;;;;;;70.10;27.50;;;2.90;88.50;;;;;;4970547;28;20056;-69
2022/03/27 06:30:15;;;;;;;66.93;30.05;;;2.90;88.50;;;;;;4955600;29;20055;-69
2022/03/27 06:32:44;;;;;;;61.05;28.30;;;2.90;88.60;;;;;;4954278;29;20047;-69
2022/03/27 06:35:13;;;;;;;65.95;26.83;;;2.90;88.60;;;;;;4954202;29;20058;-69
2022/03/27 06:37:41;;;;;;;62.15;26.88;;;2.90;88.60;;;;;;4955488;29;20404;-69
2022/03/27 06:40:12;;;;;;;55.13;25.38;;;2.90;88.70;;;;;;4954388;29;20055;-69
2022/03/27 06:42:42;;;;;;;53.85;24.67;;;2.90;88.70;;;;;;4955345;29;20046;-69
2022/03/27 06:45:12;;;;;;;67.32;26.95;;;3.00;88.80;;;;;;4955392;29;20497;-69
2022/03/27 06:47:41;;;;;;;62.83;29.60;;;3.00;88.70;;;;;;4948986;29;20078;-69
2022/03/27 06:50:09;;;;;;;55.90;27.02;;;3.10;88.80;;;;;;4943625;29;20048;-69
2022/03/27 06:52:37;;;;;;;67.85;28.55;;;3.10;88.70;;;;;;4943355;28;20055;-70
2022/03/27 06:55:06;;;;;;;55.95;28.63;;;3.20;88.80;;;;;;4944560;29;20047;-69
2022/03/27 06:57:35;;;;;;;54.63;27.17;;;3.30;88.80;;;;;;4944418;29;20043;-69
2022/03/27 07:03:09;;;;;;;45.85;24.95;;;3.50;88.60;;;;;;4943163;29;20050;-69
2022/03/27 07:05:43;;;;;;;55.22;26.48;;;3.60;88.60;;;;;;4944531;29;20043;-69
2022/03/27 07:08:12;;;;;;;52.33;26.60;;;3.60;88.50;;;;;;4942705;29;20044;-70
2022/03/27 07:10:42;;;;;;;52.58;26.30;;;3.70;88.60;;;;;;4943400;29;20055;-69
2022/03/27 07:13:11;;;;;;;59.90;28.30;;;3.80;88.60;;;;;;4943348;29;20406;-69
2022/03/27 07:15:40;;;;;;;57.88;29.02;;;3.80;88.60;;;;;;4943283;29;20051;-69
2022/03/27 07:18:09;;;;;;;62.03;30.73;;;4.00;88.60;;;;;;4943053;29;20066;-68
2022/03/27 07:20:41;;;;;;;69.05;32.42;;;4.10;88.50;;;;;;4943380;29;20062;-68
2022/03/27 07:23:11;;;;;;;53.83;28.20;;;4.30;88.50;;;;;;4943199;29;20046;-68
2022/03/27 07:25:42;;;;;;;55.30;29.10;;;4.40;88.40;;;;;;4942808;28;20538;-68
2022/03/27 07:28:11;;;;;;;60.53;28.50;;;4.50;88.40;;;;;;4943243;29;20056;-68
2022/03/27 07:30:41;;;;;;;51.97;24.52;;;4.70;88.40;;;;;;4942857;28;20501;-69
2022/03/27 07:33:09;;;;;;;47.22;25.30;;;4.80;88.40;;;;;;4942591;29;20062;-68
2022/03/27 07:35:37;;;;;;;49.13;24.23;;;5.00;88.40;;;;;;4943109;29;20516;-68
2022/03/27 07:38:05;;;;;;;44.38;23.75;;;5.10;88.40;;;;;;4944838;29;20039;-68
2022/03/27 07:40:33;;;;;;;38.08;22.42;;;5.30;88.40;;;;;;4942303;29;20155;-68
2022/03/27 07:43:01;;;;;;;40.15;21.17;;;5.50;88.30;;;;;;4944147;29;20044;-69
2022/03/27 07:45:31;;;;;;;42.22;21.88;;;5.70;88.30;;;;;;4942682;29;20051;-68
2022/03/27 07:47:59;;;;;;;37.00;20.45;;;5.80;88.30;;;;;;4942878;29;20046;-68
2022/03/27 07:50:28;;;;;;;37.00;19.23;;;6.00;88.30;;;;;;4942153;29;20055;-68
2022/03/27 07:52:56;;;;;;;31.50;15.65;;;6.20;88.30;;;;;;4943187;29;20043;-68
2022/03/27 07:55:24;;;;;;;27.83;16.27;;;6.30;88.20;;;;;;4944205;29;20047;-68
2022/03/27 07:57:58;;;;;;;30.05;15.90;;;6.60;88.10;;;;;;4943404;29;20044;-68
2022/03/27 08:00:30;;;;;;;27.70;14.90;;;6.70;87.90;;;;;;4942259;29;20052;-68
2022/03/27 08:02:58;;;;;;;22.02;13.50;;;6.80;87.80;;;;;;4942793;29;20046;-68
2022/03/27 08:05:26;;;;;;;20.65;13.05;;;6.90;87.70;;;;;;4943869;29;20055;-68
2022/03/27 08:07:54;;;;;;;20.98;13.60;;;7.00;87.60;;;;;;4943200;29;20044;-68
2022/03/27 08:10:22;;;;;;;21.80;14.07;;;7.10;87.50;;;;;;4943625;29;20048;-68
2022/03/27 08:12:50;;;;;;;21.10;13.23;;;7.30;87.40;;;;;;4943621;29;20058;-69
2022/03/27 08:15:19;;;;;;;22.40;13.70;;;7.30;87.20;;;;;;4940486;29;20070;-68
2022/03/27 08:17:51;;;;;;;24.55;12.93;;;7.50;87.10;;;;;;4934871;29;20063;-68
2022/03/27 08:20:20;;;;;;;18.70;12.27;;;7.60;87.00;;;;;;4936751;29;20035;-68
2022/03/27 08:22:48;;;;;;;25.20;13.52;;;7.70;86.80;;;;;;4936474;29;20047;-68
2022/03/27 08:26:55;;;;;;;17.17;11.73;;;7.80;86.70;;;;;;4938532;29;20123;-69
2022/03/27 08:28:03;;;;;;;24.08;12.25;;;7.90;86.50;;;;;;4936541;29;20420;-68
2022/03/27 08:30:31;;;;;;;19.15;11.13;;;8.00;86.40;;;;;;4938377;29;20058;-69
2022/03/27 08:32:59;;;;;;;18.17;10.95;;;8.10;86.20;;;;;;4938141;29;20047;-68
2022/03/27 08:35:26;;;;;;;19.02;10.93;;;8.30;86.00;;;;;;4938318;29;20052;-69
2022/03/27 08:37:54;;;;;;;16.48;10.48;;;8.30;85.80;;;;;;4938649;29;20055;-68
2022/03/27 08:40:22;;;;;;;16.60;10.68;;;8.50;85.60;;;;;;4938550;29;20047;-69
2022/03/27 08:42:50;;;;;;;20.50;10.95;;;8.60;85.40;;;;;;4938220;29;20055;-69
2022/03/27 08:45:19;;;;;;;18.83;10.15;;;8.70;85.20;;;;;;4938395;29;20052;-69
2022/03/27 08:47:47;;;;;;;17.23;10.27;;;8.80;84.90;;;;;;4938254;29;20086;-69
2022/03/27 08:50:31;;;;;;;17.33;9.73;;;8.90;84.70;;;;;;4938355;29;20046;-68
2022/03/27 08:53:01;;;;;;;16.13;9.43;;;9.10;84.30;;;;;;4938141;29;20062;-69
2022/03/27 08:55:47;;;;;;;12.80;8.85;;;9.20;84.10;;;;;;4947125;29;20055;-68
2022/03/27 08:58:15;;;;;;;16.35;8.35;;;9.30;83.80;;;;;;4953406;29;20074;-69
2022/03/27 09:00:44;;;;;;;11.88;7.80;;;9.40;83.60;;;;;;4951588;29;20052;-68
2022/03/27 09:03:12;;;;;;;12.77;7.60;;;9.60;83.30;;;;;;4971744;28;20047;-68
2022/03/27 09:05:40;;;;;;;13.93;7.30;;;9.70;83.00;;;;;;4957037;29;20051;-69
2022/03/27 09:08:09;;;;;;;9.55;6.55;;;9.90;82.70;;;;;;4956953;29;20614;-68
2022/03/27 09:10:40;;;;;;;6.95;4.28;;;10.00;82.40;;;;;;4956989;29;20382;-68
2022/03/27 09:13:13;;;;;;;7.65;4.60;;;10.30;82.10;;;;;;4956854;29;20401;-67
2022/03/27 09:15:43;;;;;;;6.85;4.43;;;10.40;81.60;;;;;;4955563;29;20413;-68
2022/03/27 09:18:12;;;;;;;6.88;4.45;;;10.60;80.90;;;;;;4956391;29;20047;-68
2022/03/27 09:20:52;;;;;;;11.25;5.65;;;10.80;80.30;;;;;;4956097;28;20055;-68
2022/03/27 09:23:31;;;;;;;9.43;6.72;;;11.10;79.30;;;;;;4956810;29;20054;-68
2022/03/27 09:26:04;;;;;;;13.50;7.30;;;11.20;78.10;;;;;;4956021;28;20409;-70
2022/03/27 09:28:42;;;;;;;12.68;7.80;;;11.30;77.80;;;;;;4955614;29;20066;-68
2022/03/27 09:31:18;;;;;;;16.42;9.32;;;11.40;77.60;;;;;;4956516;29;20040;-68
2022/03/27 09:33:49;;;;;;;17.02;9.20;;;11.40;77.10;;;;;;4955540;29;20062;-68
2022/03/27 09:36:22;;;;;;;14.88;9.88;;;11.60;76.80;;;;;;4956661;29;20400;-68
2022/03/27 09:39:03;;;;;;;14.95;10.93;;;11.80;76.70;;;;;;4956567;29;20044;-68
2022/03/27 09:41:31;;;;;;;19.60;11.02;;;12.10;76.30;;;;;;4956424;28;20059;-68
2022/03/27 09:44:01;;;;;;;12.75;8.73;;;12.30;75.70;;;;;;4956512;29;20071;-68
2022/03/27 09:46:50;;;;;;;12.93;6.88;;;12.50;75.00;;;;;;4956356;29;20055;-69
2022/03/27 09:49:20;;;;;;;6.07;4.55;;;12.60;74.00;;;;;;4956436;29;20055;-69
2022/03/27 09:51:55;;;;;;;7.57;4.88;;;12.70;73.30;;;;;;4956249;28;20070;-69
2022/03/27 09:54:23;;;;;;;6.68;4.50;;;12.70;73.40;;;;;;4956313;29;20062;-68
2022/03/27 09:56:51;;;;;;;6.00;3.92;;;12.90;72.90;;;;;;4956157;29;20051;-69
2022/03/27 09:59:33;;;;;;;10.02;4.28;;;13.00;72.40;;;;;;4956335;29;20051;-68
2022/03/27 10:02:22;;;;;;;5.05;3.90;;;13.20;71.90;;;;;;4955814;28;20058;-69
2022/03/27 10:05:07;;;;;;;8.30;4.38;;;13.30;71.10;;;;;;4956080;29;20050;-68
2022/03/27 10:07:47;;;;;;;9.68;4.50;;;13.50;71.00;;;;;;4956070;29;20060;-68
2022/03/27 10:10:17;;;;;;;6.88;4.05;;;13.70;70.50;;;;;;4956050;29;20051;-69
2022/03/27 10:12:48;;;;;;;23.70;4.63;;;13.90;69.90;;;;;;4955832;29;20054;-68
2022/03/27 10:15:28;;;;;;;8.98;5.13;;;14.10;69.40;;;;;;4955779;29;20058;-68
2022/03/27 10:17:57;;;;;;;8.50;5.13;;;14.30;68.60;;;;;;4955904;29;20512;-68
2022/03/27 10:20:31;;;;;;;8.70;5.20;;;14.40;68.10;;;;;;4954814;29;20055;-68
2022/03/27 10:23:07;;;;;;;7.00;4.93;;;14.60;67.70;;;;;;4955810;29;20062;-69
2022/03/27 10:25:44;;;;;;;9.75;5.38;;;14.80;67.30;;;;;;4955786;29;20405;-69
2022/03/27 10:28:11;;;;;;;7.50;4.82;;;15.00;66.40;;;;;;4955828;29;20043;-69
2022/03/27 10:30:41;;;;;;;9.63;5.47;;;15.20;65.60;;;;;;4955610;29;20051;-69
2022/03/27 10:33:10;;;;;;;8.45;5.07;;;15.30;64.90;;;;;;4955184;29;20358;-69
2022/03/27 10:36:10;;;;;;;6.95;5.03;;;15.40;64.50;;;;;;4955517;29;20047;-68
2022/03/27 10:39:01;;;;;;;8.43;5.65;;;15.50;63.70;;;;;;4955566;29;20058;-69
2022/03/27 10:42:03;;;;;;;6.70;4.85;;;15.60;63.50;;;;;;4955380;29;20066;-69
2022/03/27 10:44:42;;;;;;;5.93;5.10;;;15.70;62.90;;;;;;4955402;28;20051;-69
2022/03/27 10:47:12;;;;;;;7.10;4.53;;;15.90;62.50;;;;;;4955313;29;20520;-69
2022/03/27 10:50:05;;;;;;;6.55;4.57;;;16.00;61.60;;;;;;4955316;29;20055;-69
2022/03/27 10:52:57;;;;;;;5.80;4.93;;;16.00;60.90;;;;;;4954044;29;20062;-69
2022/03/27 10:55:46;;;;;;;6.50;4.70;;;16.10;60.80;;;;;;4954740;29;20051;-69
2022/03/27 10:58:32;;;;;;;5.45;4.70;;;16.20;60.30;;;;;;4955030;29;20493;-69
2022/03/27 11:01:04;;;;;;;6.40;5.13;;;16.30;59.80;;;;;;4955098;29;20047;-69
2022/03/27 11:04:08;;;;;;;5.43;4.68;;;16.40;59.60;;;;;;4955099;29;20043;-69
2022/03/27 11:06:38;;;;;;;5.78;4.43;;;16.60;59.00;;;;;;4954986;29;20401;-69
2022/03/27 11:09:08;;;;;;;9.60;4.93;;;16.60;58.70;;;;;;4954533;28;20066;-69
2022/03/27 11:11:44;;;;;;;5.95;4.78;;;16.80;58.30;;;;;;4954878;29;20039;-69
2022/03/27 11:14:22;;;;;;;9.75;4.65;;;16.80;58.10;;;;;;4954815;29;20047;-69
2022/03/27 11:17:05;;;;;;;6.55;4.70;;;16.80;58.20;;;;;;4954345;28;20066;-69
2022/03/27 11:19:41;;;;;;;6.53;4.80;;;17.10;57.90;;;;;;4954856;29;20051;-69
2022/03/27 11:22:40;;;;;;;11.85;5.50;;;17.30;57.40;;;;;;4954710;29;20058;-69
2022/03/27 11:25:27;;;;;;;8.20;4.78;;;17.40;56.40;;;;;;4954788;29;20044;-69
2022/03/27 11:27:56;;;;;;;8.60;4.70;;;17.30;56.80;;;;;;4954697;29;20051;-69
2022/03/27 11:30:24;;;;;;;8.32;4.70;;;17.50;56.80;;;;;;4954338;28;20055;-69
2022/03/27 11:33:21;;;;;;;6.50;4.20;;;17.50;56.30;;;;;;4969374;28;20055;-69
2022/03/27 11:36:11;;;;;;;7.22;4.70;;;17.50;55.50;;;;;;4954460;29;20047;-69
2022/03/27 11:38:51;;;;;;;7.68;4.35;;;17.40;55.50;;;;;;4953423;29;20390;-69
2022/03/27 11:41:31;;;;;;;5.90;4.30;;;17.40;55.80;;;;;;4954309;29;20062;-69
2022/03/27 11:44:17;;;;;;;9.27;3.97;;;17.60;55.90;;;;;;4954244;29;20051;-70
2022/03/27 11:46:48;;;;;;;5.93;3.70;;;17.80;55.00;;;;;;4954320;29;20405;-69
2022/03/27 11:49:17;;;;;;;6.43;3.53;;;17.80;55.10;;;;;;4954054;28;20416;-69
2022/03/27 11:51:44;;;;;;;8.63;4.35;;;17.90;54.80;;;;;;4954350;29;20047;-69
2022/03/27 11:54:17;;;;;;;6.75;3.95;;;18.00;54.60;;;;;;4954129;29;20054;-69
2022/03/27 11:56:56;;;;;;;4.95;4.00;;;18.10;54.40;;;;;;4954256;29;20054;-69
2022/03/27 11:59:26;;;;;;;6.75;4.03;;;18.20;54.30;;;;;;4954318;29;20054;-69
2022/03/27 12:02:00;;;;;;;5.28;3.28;;;18.30;54.20;;;;;;4954217;28;20055;-69
2022/03/27 12:04:28;;;;;;;4.90;2.67;;;18.30;53.90;;;;;;4954121;29;20062;-69
2022/03/27 12:06:57;;;;;;;5.35;2.90;;;18.40;53.40;;;;;;4954211;29;20178;-70
2022/03/27 12:09:34;;;;;;;5.53;2.88;;;18.40;53.20;;;;;;4954210;29;20063;-68
2022/03/27 12:12:12;;;;;;;5.18;2.67;;;18.50;52.90;;;;;;4954015;29;20051;-68
2022/03/27 12:15:04;;;;;;;3.50;2.72;;;18.60;52.80;;;;;;4952964;29;20066;-68
2022/03/27 12:17:42;;;;;;;3.58;3.20;;;18.80;52.20;;;;;;4952848;29;20500;-69
2022/03/27 12:20:12;;;;;;;3.83;3.10;;;18.80;52.10;;;;;;4954084;29;20155;-68
2022/03/27 12:22:43;;;;;;;3.58;3.08;;;18.90;52.10;;;;;;4954344;29;20063;-68
2022/03/27 12:25:28;;;;;;;4.38;3.38;;;19.10;51.70;;;;;;4954011;29;20047;-68
2022/03/27 12:31:22;;;;;;;3.15;2.85;;;19.20;51.70;;;;;;4953999;29;20047;-68
2022/03/27 12:33:51;;;;;;;3.92;3.30;;;19.30;50.90;;;;;;4953896;29;20047;-68
2022/03/27 12:36:22;;;;;;;5.85;3.30;;;19.30;50.70;;;;;;4953850;29;20066;-68
2022/03/27 12:38:49;;;;;;;4.97;3.60;;;19.30;50.70;;;;;;4953817;29;20059;-68
2022/03/27 12:41:49;;;;;;;4.65;4.03;;;19.30;51.00;;;;;;4953787;29;20048;-69
2022/03/27 12:44:17;;;;;;;7.07;4.28;;;19.30;51.10;;;;;;4921928;28;20063;-68
2022/03/27 12:46:50;;;;;;;9.20;4.97;;;19.40;51.30;;;;;;4952491;29;20051;-69
2022/03/27 12:49:18;;;;;;;6.50;5.80;;;19.50;51.10;;;;;;4953792;28;20051;-68
2022/03/27 12:51:56;;;;;;;9.32;5.97;;;19.60;51.00;;;;;;4952418;29;20671;-69
2022/03/27 12:54:24;;;;;;;8.00;6.80;;;19.50;51.30;;;;;;4953242;29;20494;-68
2022/03/27 12:56:58;;;;;;;14.88;7.45;;;19.60;51.30;;;;;;4953739;29;20047;-68
2022/03/27 12:59:26;;;;;;;9.40;7.78;;;19.60;51.00;;;;;;4953720;28;20047;-68
2022/03/27 13:01:54;;;;;;;10.65;8.18;;;19.60;50.60;;;;;;4956192;29;20051;-68
2022/03/27 13:04:22;;;;;;;12.20;9.20;;;19.50;50.90;;;;;;4957256;29;20052;-68
2022/03/27 13:07:03;;;;;;;11.35;9.73;;;19.50;50.90;;;;;;4957185;29;20062;-68
2022/03/27 13:09:31;;;;;;;15.52;11.05;;;19.40;51.00;;;;;;4956636;28;20059;-68